sensor_id;sensor_type;location;lat;lon;timestamp;P1;durP1;ratioP1;P2;durP2;ratioP2
50066;SDS011;35952;52.524;13.340;2023-12-20T00:01:16;9.63;;;8.60;;
50066;SDS011;35952;52.524;13.340;2023-12-20T00:03:42;7.63;;;5.80;;
50066;SDS011;35952;52.524;13.340;2023-12-20T00:06:07;5.97;;;5.37;;
50066;SDS011;35952;52.524;13.340;2023-12-20T00:08:33;5.67;;;5.20;;
50066;SDS011;35952;52.524;13.340;2023-12-20T00:10:59;6.23;;;5.73;;
50066;SDS011;35952;52.524;13.340;2023-12-20T00:13:24;6.77;;;6.17;;
50066;SDS011;35952;52.524;13.340;2023-12-20T00:15:50;6.80;;;6.10;;
50066;SDS011;35952;52.524;13.340;2023-12-20T00:18:15;7.00;;;6.40;;
50066;SDS011;35952;52.524;13.340;2023-12-20T00:20:41;6.27;;;5.70;;
50066;SDS011;35952;52.524;13.340;2023-12-20T00:23:06;6.97;;;6.33;;
50066;SDS011;35952;52.524;13.340;2023-12-20T00:25:33;7.00;;;6.17;;
50066;SDS011;35952;52.524;13.340;2023-12-20T00:27:59;6.83;;;5.80;;
50066;SDS011;35952;52.524;13.340;2023-12-20T00:30:25;7.63;;;6.33;;
50066;SDS011;35952;52.524;13.340;2023-12-20T00:32:50;7.80;;;6.23;;
50066;SDS011;35952;52.524;13.340;2023-12-20T00:35:16;7.50;;;5.67;;
50066;SDS011;35952;52.524;13.340;2023-12-20T00:37:44;7.20;;;6.50;;
50066;SDS011;35952;52.524;13.340;2023-12-20T00:40:10;5.90;;;5.40;;
50066;SDS011;35952;52.524;13.340;2023-12-20T00:42:36;5.83;;;5.23;;
50066;SDS011;35952;52.524;13.340;2023-12-20T00:45:02;6.07;;;5.37;;
50066;SDS011;35952;52.524;13.340;2023-12-20T00:47:29;5.53;;;5.03;;
50066;SDS011;35952;52.524;13.340;2023-12-20T00:49:55;6.30;;;5.70;;
50066;SDS011;35952;52.524;13.340;2023-12-20T00:52:20;6.07;;;5.47;;
50066;SDS011;35952;52.524;13.340;2023-12-20T00:54:47;6.90;;;5.90;;
50066;SDS011;35952;52.524;13.340;2023-12-20T00:57:13;6.30;;;5.80;;
50066;SDS011;35952;52.524;13.340;2023-12-20T00:59:38;6.73;;;6.13;;
50066;SDS011;35952;52.524;13.340;2023-12-20T01:02:04;6.83;;;6.17;;
50066;SDS011;35952;52.524;13.340;2023-12-20T01:04:29;6.00;;;5.40;;
50066;SDS011;35952;52.524;13.340;2023-12-20T01:06:55;7.60;;;6.17;;
50066;SDS011;35952;52.524;13.340;2023-12-20T01:09:20;6.20;;;5.60;;
50066;SDS011;35952;52.524;13.340;2023-12-20T01:11:48;7.33;;;6.57;;
50066;SDS011;35952;52.524;13.340;2023-12-20T01:14:14;6.33;;;5.73;;
50066;SDS011;35952;52.524;13.340;2023-12-20T01:16:39;6.93;;;6.00;;
50066;SDS011;35952;52.524;13.340;2023-12-20T01:19:05;6.07;;;5.50;;
50066;SDS011;35952;52.524;13.340;2023-12-20T01:21:31;7.00;;;6.30;;
50066;SDS011;35952;52.524;13.340;2023-12-20T01:23:57;6.07;;;5.47;;
50066;SDS011;35952;52.524;13.340;2023-12-20T01:26:22;7.50;;;6.30;;
50066;SDS011;35952;52.524;13.340;2023-12-20T01:28:48;6.47;;;5.87;;
50066;SDS011;35952;52.524;13.340;2023-12-20T01:31:13;6.77;;;6.10;;
50066;SDS011;35952;52.524;13.340;2023-12-20T01:33:39;7.60;;;6.53;;
50066;SDS011;35952;52.524;13.340;2023-12-20T01:36:04;6.40;;;5.70;;
50066;SDS011;35952;52.524;13.340;2023-12-20T01:38:30;5.23;;;4.73;;
50066;SDS011;35952;52.524;13.340;2023-12-20T01:40:55;7.40;;;6.27;;
50066;SDS011;35952;52.524;13.340;2023-12-20T01:43:21;7.60;;;6.90;;
50066;SDS011;35952;52.524;13.340;2023-12-20T01:45:47;6.53;;;5.87;;
50066;SDS011;35952;52.524;13.340;2023-12-20T01:48:13;6.43;;;5.77;;
50066;SDS011;35952;52.524;13.340;2023-12-20T01:50:40;5.43;;;5.00;;
50066;SDS011;35952;52.524;13.340;2023-12-20T01:53:08;5.73;;;5.17;;
50066;SDS011;35952;52.524;13.340;2023-12-20T01:55:35;6.20;;;5.60;;
50066;SDS011;35952;52.524;13.340;2023-12-20T01:58:04;6.93;;;5.37;;
50066;SDS011;35952;52.524;13.340;2023-12-20T02:00:30;5.87;;;5.07;;
50066;SDS011;35952;52.524;13.340;2023-12-20T02:02:56;6.00;;;4.97;;
50066;SDS011;35952;52.524;13.340;2023-12-20T02:05:25;6.73;;;5.70;;
50066;SDS011;35952;52.524;13.340;2023-12-20T02:07:52;5.27;;;4.80;;
50066;SDS011;35952;52.524;13.340;2023-12-20T02:10:18;5.83;;;5.23;;
50066;SDS011;35952;52.524;13.340;2023-12-20T02:12:44;5.17;;;4.67;;
50066;SDS011;35952;52.524;13.340;2023-12-20T02:15:09;4.30;;;3.90;;
50066;SDS011;35952;52.524;13.340;2023-12-20T02:20:24;4.17;;;3.70;;
50066;SDS011;35952;52.524;13.340;2023-12-20T02:22:50;7.13;;;4.60;;
50066;SDS011;35952;52.524;13.340;2023-12-20T02:25:15;6.60;;;5.30;;
50066;SDS011;35952;52.524;13.340;2023-12-20T02:27:41;4.67;;;4.27;;
50066;SDS011;35952;52.524;13.340;2023-12-20T02:30:06;4.77;;;4.37;;
50066;SDS011;35952;52.524;13.340;2023-12-20T02:32:33;4.20;;;3.80;;
50066;SDS011;35952;52.524;13.340;2023-12-20T02:34:59;4.03;;;3.70;;
50066;SDS011;35952;52.524;13.340;2023-12-20T02:37:24;4.97;;;4.53;;
50066;SDS011;35952;52.524;13.340;2023-12-20T02:39:50;5.57;;;5.00;;
50066;SDS011;35952;52.524;13.340;2023-12-20T02:42:15;4.57;;;4.00;;
50066;SDS011;35952;52.524;13.340;2023-12-20T02:44:41;5.60;;;5.00;;
50066;SDS011;35952;52.524;13.340;2023-12-20T02:47:06;8.57;;;6.87;;
50066;SDS011;35952;52.524;13.340;2023-12-20T02:49:32;6.80;;;5.83;;
50066;SDS011;35952;52.524;13.340;2023-12-20T02:51:57;8.00;;;6.13;;
50066;SDS011;35952;52.524;13.340;2023-12-20T02:54:23;5.77;;;5.23;;
50066;SDS011;35952;52.524;13.340;2023-12-20T02:56:48;7.20;;;6.50;;
50066;SDS011;35952;52.524;13.340;2023-12-20T02:59:14;6.63;;;5.50;;
50066;SDS011;35952;52.524;13.340;2023-12-20T03:01:44;10.13;;;6.57;;
50066;SDS011;35952;52.524;13.340;2023-12-20T03:04:10;6.83;;;5.60;;
50066;SDS011;35952;52.524;13.340;2023-12-20T03:06:35;10.53;;;6.10;;
50066;SDS011;35952;52.524;13.340;2023-12-20T03:09:01;7.90;;;5.70;;
50066;SDS011;35952;52.524;13.340;2023-12-20T03:11:27;9.83;;;6.63;;
50066;SDS011;35952;52.524;13.340;2023-12-20T03:13:53;8.60;;;5.60;;
50066;SDS011;35952;52.524;13.340;2023-12-20T03:16:19;8.43;;;5.70;;
50066;SDS011;35952;52.524;13.340;2023-12-20T03:18:45;7.27;;;4.97;;
50066;SDS011;35952;52.524;13.340;2023-12-20T03:21:10;6.70;;;4.57;;
50066;SDS011;35952;52.524;13.340;2023-12-20T03:23:36;7.00;;;5.33;;
50066;SDS011;35952;52.524;13.340;2023-12-20T03:26:01;5.20;;;4.00;;
50066;SDS011;35952;52.524;13.340;2023-12-20T03:28:27;7.40;;;4.43;;
50066;SDS011;35952;52.524;13.340;2023-12-20T03:30:53;7.97;;;4.80;;
50066;SDS011;35952;52.524;13.340;2023-12-20T03:33:18;6.20;;;3.20;;
50066;SDS011;35952;52.524;13.340;2023-12-20T03:35:44;3.80;;;3.40;;
50066;SDS011;35952;52.524;13.340;2023-12-20T03:38:09;6.40;;;3.70;;
50066;SDS011;35952;52.524;13.340;2023-12-20T03:40:35;4.97;;;3.33;;
50066;SDS011;35952;52.524;13.340;2023-12-20T03:43:00;3.47;;;3.17;;
50066;SDS011;35952;52.524;13.340;2023-12-20T03:45:26;4.53;;;2.50;;
50066;SDS011;35952;52.524;13.340;2023-12-20T03:47:51;5.53;;;2.20;;
50066;SDS011;35952;52.524;13.340;2023-12-20T03:50:25;7.50;;;4.10;;
50066;SDS011;35952;52.524;13.340;2023-12-20T03:52:52;6.10;;;3.20;;
50066;SDS011;35952;52.524;13.340;2023-12-20T03:55:17;4.50;;;3.33;;
50066;SDS011;35952;52.524;13.340;2023-12-20T03:57:43;4.33;;;2.47;;
50066;SDS011;35952;52.524;13.340;2023-12-20T04:00:08;8.57;;;2.90;;
50066;SDS011;35952;52.524;13.340;2023-12-20T04:02:38;8.13;;;3.20;;
50066;SDS011;35952;52.524;13.340;2023-12-20T04:05:04;6.30;;;2.53;;
50066;SDS011;35952;52.524;13.340;2023-12-20T04:07:31;6.47;;;2.50;;
50066;SDS011;35952;52.524;13.340;2023-12-20T04:09:56;6.87;;;2.87;;
50066;SDS011;35952;52.524;13.340;2023-12-20T04:12:22;8.47;;;2.40;;
50066;SDS011;35952;52.524;13.340;2023-12-20T04:14:47;6.47;;;2.30;;
50066;SDS011;35952;52.524;13.340;2023-12-20T04:17:13;6.23;;;2.77;;
50066;SDS011;35952;52.524;13.340;2023-12-20T04:19:40;2.50;;;2.30;;
50066;SDS011;35952;52.524;13.340;2023-12-20T04:22:06;5.40;;;2.50;;
50066;SDS011;35952;52.524;13.340;2023-12-20T04:24:32;7.33;;;2.77;;
50066;SDS011;35952;52.524;13.340;2023-12-20T04:26:57;11.17;;;3.30;;
50066;SDS011;35952;52.524;13.340;2023-12-20T04:29:23;8.63;;;2.97;;
50066;SDS011;35952;52.524;13.340;2023-12-20T04:31:48;4.03;;;2.60;;
50066;SDS011;35952;52.524;13.340;2023-12-20T04:34:16;12.33;;;3.20;;
50066;SDS011;35952;52.524;13.340;2023-12-20T04:36:42;7.10;;;2.97;;
50066;SDS011;35952;52.524;13.340;2023-12-20T04:39:07;12.30;;;4.00;;
50066;SDS011;35952;52.524;13.340;2023-12-20T04:41:33;6.07;;;3.17;;
50066;SDS011;35952;52.524;13.340;2023-12-20T04:43:58;10.37;;;2.90;;
50066;SDS011;35952;52.524;13.340;2023-12-20T04:46:25;7.40;;;3.47;;
50066;SDS011;35952;52.524;13.340;2023-12-20T04:48:51;10.30;;;4.27;;
50066;SDS011;35952;52.524;13.340;2023-12-20T04:51:16;5.93;;;2.50;;
50066;SDS011;35952;52.524;13.340;2023-12-20T04:53:42;5.70;;;2.87;;
50066;SDS011;35952;52.524;13.340;2023-12-20T04:56:07;7.17;;;2.00;;
50066;SDS011;35952;52.524;13.340;2023-12-20T04:58:33;10.30;;;3.23;;
50066;SDS011;35952;52.524;13.340;2023-12-20T05:00:58;10.50;;;2.70;;
50066;SDS011;35952;52.524;13.340;2023-12-20T05:03:24;6.27;;;2.60;;
50066;SDS011;35952;52.524;13.340;2023-12-20T05:05:49;4.90;;;2.70;;
50066;SDS011;35952;52.524;13.340;2023-12-20T05:08:15;4.80;;;2.60;;
50066;SDS011;35952;52.524;13.340;2023-12-20T05:10:40;4.40;;;2.80;;
50066;SDS011;35952;52.524;13.340;2023-12-20T05:13:06;10.73;;;2.83;;
50066;SDS011;35952;52.524;13.340;2023-12-20T05:15:31;6.20;;;2.77;;
50066;SDS011;35952;52.524;13.340;2023-12-20T05:17:57;11.70;;;3.07;;
50066;SDS011;35952;52.524;13.340;2023-12-20T05:20:22;6.63;;;3.50;;
50066;SDS011;35952;52.524;13.340;2023-12-20T05:22:48;4.97;;;3.13;;
50066;SDS011;35952;52.524;13.340;2023-12-20T05:25:14;8.50;;;3.30;;
50066;SDS011;35952;52.524;13.340;2023-12-20T05:27:39;4.63;;;2.53;;
50066;SDS011;35952;52.524;13.340;2023-12-20T05:30:05;5.77;;;2.20;;
50066;SDS011;35952;52.524;13.340;2023-12-20T05:32:31;9.20;;;3.53;;
50066;SDS011;35952;52.524;13.340;2023-12-20T05:34:56;11.20;;;2.57;;
50066;SDS011;35952;52.524;13.340;2023-12-20T05:37:22;6.10;;;2.50;;
50066;SDS011;35952;52.524;13.340;2023-12-20T05:39:47;7.33;;;2.80;;
50066;SDS011;35952;52.524;13.340;2023-12-20T05:42:13;5.33;;;2.20;;
50066;SDS011;35952;52.524;13.340;2023-12-20T05:44:38;11.07;;;2.70;;
50066;SDS011;35952;52.524;13.340;2023-12-20T05:47:04;4.40;;;3.00;;
50066;SDS011;35952;52.524;13.340;2023-12-20T05:49:29;8.87;;;2.90;;
50066;SDS011;35952;52.524;13.340;2023-12-20T05:51:55;6.20;;;2.50;;
50066;SDS011;35952;52.524;13.340;2023-12-20T05:54:20;6.40;;;2.70;;
50066;SDS011;35952;52.524;13.340;2023-12-20T05:56:46;7.87;;;2.57;;
50066;SDS011;35952;52.524;13.340;2023-12-20T05:59:12;8.13;;;2.80;;
50066;SDS011;35952;52.524;13.340;2023-12-20T06:01:38;8.60;;;4.50;;
50066;SDS011;35952;52.524;13.340;2023-12-20T06:04:03;10.60;;;2.80;;
50066;SDS011;35952;52.524;13.340;2023-12-20T06:06:29;12.30;;;4.83;;
50066;SDS011;35952;52.524;13.340;2023-12-20T06:08:55;7.23;;;3.00;;
50066;SDS011;35952;52.524;13.340;2023-12-20T06:11:21;9.80;;;3.30;;
50066;SDS011;35952;52.524;13.340;2023-12-20T06:13:46;3.93;;;2.80;;
50066;SDS011;35952;52.524;13.340;2023-12-20T06:16:12;9.57;;;3.33;;
50066;SDS011;35952;52.524;13.340;2023-12-20T06:18:37;4.23;;;2.87;;
50066;SDS011;35952;52.524;13.340;2023-12-20T06:21:03;5.80;;;2.53;;
50066;SDS011;35952;52.524;13.340;2023-12-20T06:23:29;7.93;;;4.17;;
50066;SDS011;35952;52.524;13.340;2023-12-20T06:25:54;13.53;;;3.40;;
50066;SDS011;35952;52.524;13.340;2023-12-20T06:28:20;2.53;;;2.33;;
50066;SDS011;35952;52.524;13.340;2023-12-20T06:30:45;11.83;;;2.73;;
50066;SDS011;35952;52.524;13.340;2023-12-20T06:33:14;4.87;;;2.73;;
50066;SDS011;35952;52.524;13.340;2023-12-20T06:35:39;10.03;;;2.83;;
50066;SDS011;35952;52.524;13.340;2023-12-20T06:38:05;6.90;;;2.63;;
50066;SDS011;35952;52.524;13.340;2023-12-20T06:40:30;8.80;;;2.97;;
50066;SDS011;35952;52.524;13.340;2023-12-20T06:42:56;4.47;;;2.70;;
50066;SDS011;35952;52.524;13.340;2023-12-20T06:45:21;8.97;;;2.57;;
50066;SDS011;35952;52.524;13.340;2023-12-20T06:47:47;12.87;;;5.50;;
50066;SDS011;35952;52.524;13.340;2023-12-20T06:50:12;5.63;;;3.47;;
50066;SDS011;35952;52.524;13.340;2023-12-20T06:52:38;7.10;;;3.00;;
50066;SDS011;35952;52.524;13.340;2023-12-20T06:55:03;9.90;;;6.67;;
50066;SDS011;35952;52.524;13.340;2023-12-20T06:57:29;4.37;;;2.67;;
50066;SDS011;35952;52.524;13.340;2023-12-20T06:59:55;9.57;;;2.47;;
50066;SDS011;35952;52.524;13.340;2023-12-20T07:02:21;9.97;;;2.67;;
50066;SDS011;35952;52.524;13.340;2023-12-20T07:04:47;6.63;;;3.20;;
50066;SDS011;35952;52.524;13.340;2023-12-20T07:07:12;8.63;;;5.17;;
50066;SDS011;35952;52.524;13.340;2023-12-20T07:09:38;10.90;;;3.40;;
50066;SDS011;35952;52.524;13.340;2023-12-20T07:12:04;10.97;;;3.17;;
50066;SDS011;35952;52.524;13.340;2023-12-20T07:14:29;5.93;;;3.10;;
50066;SDS011;35952;52.524;13.340;2023-12-20T07:16:55;8.43;;;4.00;;
50066;SDS011;35952;52.524;13.340;2023-12-20T07:19:20;11.13;;;4.70;;
50066;SDS011;35952;52.524;13.340;2023-12-20T07:21:46;7.40;;;3.00;;
50066;SDS011;35952;52.524;13.340;2023-12-20T07:24:11;7.13;;;3.47;;
50066;SDS011;35952;52.524;13.340;2023-12-20T07:26:37;11.10;;;3.67;;
50066;SDS011;35952;52.524;13.340;2023-12-20T07:29:03;10.40;;;2.80;;
50066;SDS011;35952;52.524;13.340;2023-12-20T07:31:29;12.00;;;4.07;;
50066;SDS011;35952;52.524;13.340;2023-12-20T07:33:54;12.43;;;3.63;;
50066;SDS011;35952;52.524;13.340;2023-12-20T07:36:20;9.10;;;3.13;;
50066;SDS011;35952;52.524;13.340;2023-12-20T07:38:46;7.80;;;3.27;;
50066;SDS011;35952;52.524;13.340;2023-12-20T07:41:12;8.77;;;2.70;;
50066;SDS011;35952;52.524;13.340;2023-12-20T07:43:37;9.37;;;3.80;;
50066;SDS011;35952;52.524;13.340;2023-12-20T07:46:04;8.87;;;3.40;;
50066;SDS011;35952;52.524;13.340;2023-12-20T07:48:35;5.20;;;3.03;;
50066;SDS011;35952;52.524;13.340;2023-12-20T07:51:02;8.03;;;3.20;;
50066;SDS011;35952;52.524;13.340;2023-12-20T07:53:28;8.83;;;2.77;;
50066;SDS011;35952;52.524;13.340;2023-12-20T07:55:53;3.40;;;3.07;;
50066;SDS011;35952;52.524;13.340;2023-12-20T07:58:19;5.83;;;2.60;;
50066;SDS011;35952;52.524;13.340;2023-12-20T08:00:45;5.78;;;3.10;;
50066;SDS011;35952;52.524;13.340;2023-12-20T08:03:10;6.37;;;2.70;;
50066;SDS011;35952;52.524;13.340;2023-12-20T08:05:35;10.53;;;3.80;;
50066;SDS011;35952;52.524;13.340;2023-12-20T08:08:02;11.03;;;3.90;;
50066;SDS011;35952;52.524;13.340;2023-12-20T08:10:27;4.17;;;2.97;;
50066;SDS011;35952;52.524;13.340;2023-12-20T08:12:55;6.00;;;3.10;;
50066;SDS011;35952;52.524;13.340;2023-12-20T08:15:20;7.43;;;3.00;;
50066;SDS011;35952;52.524;13.340;2023-12-20T08:17:45;10.93;;;3.10;;
50066;SDS011;35952;52.524;13.340;2023-12-20T08:20:11;6.10;;;2.93;;
50066;SDS011;35952;52.524;13.340;2023-12-20T08:22:37;6.63;;;2.90;;
50066;SDS011;35952;52.524;13.340;2023-12-20T08:25:02;5.50;;;2.87;;
50066;SDS011;35952;52.524;13.340;2023-12-20T08:27:28;5.53;;;2.37;;
50066;SDS011;35952;52.524;13.340;2023-12-20T08:29:53;6.70;;;2.50;;
50066;SDS011;35952;52.524;13.340;2023-12-20T08:32:19;9.53;;;2.53;;
50066;SDS011;35952;52.524;13.340;2023-12-20T08:34:44;7.63;;;3.10;;
50066;SDS011;35952;52.524;13.340;2023-12-20T08:37:10;7.83;;;3.10;;
50066;SDS011;35952;52.524;13.340;2023-12-20T08:39:35;6.83;;;3.23;;
50066;SDS011;35952;52.524;13.340;2023-12-20T08:42:01;9.00;;;3.13;;
50066;SDS011;35952;52.524;13.340;2023-12-20T08:44:26;6.30;;;3.27;;
50066;SDS011;35952;52.524;13.340;2023-12-20T08:46:52;16.93;;;2.40;;
50066;SDS011;35952;52.524;13.340;2023-12-20T08:49:17;8.50;;;3.20;;
50066;SDS011;35952;52.524;13.340;2023-12-20T08:51:43;3.20;;;2.53;;
50066;SDS011;35952;52.524;13.340;2023-12-20T08:54:08;9.27;;;3.07;;
50066;SDS011;35952;52.524;13.340;2023-12-20T08:56:34;7.57;;;3.10;;
50066;SDS011;35952;52.524;13.340;2023-12-20T08:59:00;9.60;;;3.87;;
50066;SDS011;35952;52.524;13.340;2023-12-20T09:01:25;10.27;;;3.57;;
50066;SDS011;35952;52.524;13.340;2023-12-20T09:03:51;13.10;;;3.90;;
50066;SDS011;35952;52.524;13.340;2023-12-20T09:06:16;15.73;;;3.00;;
50066;SDS011;35952;52.524;13.340;2023-12-20T09:08:41;9.90;;;3.10;;
50066;SDS011;35952;52.524;13.340;2023-12-20T09:11:07;5.70;;;2.97;;
50066;SDS011;35952;52.524;13.340;2023-12-20T09:13:33;10.97;;;3.10;;
50066;SDS011;35952;52.524;13.340;2023-12-20T09:15:58;5.33;;;2.10;;
50066;SDS011;35952;52.524;13.340;2023-12-20T09:18:24;4.23;;;2.70;;
50066;SDS011;35952;52.524;13.340;2023-12-20T09:20:49;6.30;;;2.53;;
50066;SDS011;35952;52.524;13.340;2023-12-20T09:23:15;4.20;;;2.97;;
50066;SDS011;35952;52.524;13.340;2023-12-20T09:25:41;8.87;;;3.70;;
50066;SDS011;35952;52.524;13.340;2023-12-20T09:28:07;4.20;;;2.67;;
50066;SDS011;35952;52.524;13.340;2023-12-20T09:30:32;9.63;;;3.00;;
50066;SDS011;35952;52.524;13.340;2023-12-20T09:32:58;4.77;;;2.60;;
50066;SDS011;35952;52.524;13.340;2023-12-20T09:35:24;11.73;;;3.90;;
50066;SDS011;35952;52.524;13.340;2023-12-20T09:37:50;9.73;;;3.03;;
50066;SDS011;35952;52.524;13.340;2023-12-20T09:40:19;5.50;;;2.67;;
50066;SDS011;35952;52.524;13.340;2023-12-20T09:42:51;8.37;;;3.17;;
50066;SDS011;35952;52.524;13.340;2023-12-20T09:45:23;7.93;;;3.50;;
50066;SDS011;35952;52.524;13.340;2023-12-20T09:47:52;7.40;;;3.27;;
50066;SDS011;35952;52.524;13.340;2023-12-20T09:50:19;18.30;;;3.30;;
50066;SDS011;35952;52.524;13.340;2023-12-20T09:52:47;7.80;;;3.30;;
50066;SDS011;35952;52.524;13.340;2023-12-20T09:55:16;15.50;;;3.30;;
50066;SDS011;35952;52.524;13.340;2023-12-20T09:57:44;9.23;;;3.20;;
50066;SDS011;35952;52.524;13.340;2023-12-20T10:00:10;8.83;;;3.37;;
50066;SDS011;35952;52.524;13.340;2023-12-20T10:02:36;8.20;;;3.53;;
50066;SDS011;35952;52.524;13.340;2023-12-20T10:05:06;11.60;;;3.47;;
50066;SDS011;35952;52.524;13.340;2023-12-20T10:07:34;5.10;;;3.17;;
50066;SDS011;35952;52.524;13.340;2023-12-20T10:10:00;6.83;;;3.20;;
50066;SDS011;35952;52.524;13.340;2023-12-20T10:12:27;7.50;;;2.50;;
50066;SDS011;35952;52.524;13.340;2023-12-20T10:14:52;13.33;;;3.07;;
50066;SDS011;35952;52.524;13.340;2023-12-20T10:17:18;7.30;;;3.30;;
50066;SDS011;35952;52.524;13.340;2023-12-20T10:19:43;5.43;;;2.67;;
50066;SDS011;35952;52.524;13.340;2023-12-20T10:22:09;5.23;;;2.90;;
50066;SDS011;35952;52.524;13.340;2023-12-20T10:24:35;10.10;;;3.30;;
50066;SDS011;35952;52.524;13.340;2023-12-20T10:27:01;6.67;;;3.20;;
50066;SDS011;35952;52.524;13.340;2023-12-20T10:29:33;4.50;;;3.53;;
50066;SDS011;35952;52.524;13.340;2023-12-20T10:34:48;6.53;;;3.20;;
50066;SDS011;35952;52.524;13.340;2023-12-20T10:37:14;8.33;;;3.10;;
50066;SDS011;35952;52.524;13.340;2023-12-20T10:39:39;8.70;;;3.37;;
50066;SDS011;35952;52.524;13.340;2023-12-20T10:42:07;9.40;;;3.50;;
50066;SDS011;35952;52.524;13.340;2023-12-20T10:44:37;8.80;;;3.60;;
50066;SDS011;35952;52.524;13.340;2023-12-20T10:47:02;17.77;;;3.47;;
50066;SDS011;35952;52.524;13.340;2023-12-20T10:49:29;5.50;;;3.10;;
50066;SDS011;35952;52.524;13.340;2023-12-20T10:51:56;7.40;;;2.83;;
50066;SDS011;35952;52.524;13.340;2023-12-20T10:54:27;5.57;;;3.70;;
50066;SDS011;35952;52.524;13.340;2023-12-20T10:56:52;12.10;;;5.33;;
50066;SDS011;35952;52.524;13.340;2023-12-20T10:59:19;10.03;;;4.00;;
50066;SDS011;35952;52.524;13.340;2023-12-20T11:01:47;7.33;;;4.00;;
50066;SDS011;35952;52.524;13.340;2023-12-20T11:04:15;8.43;;;3.73;;
50066;SDS011;35952;52.524;13.340;2023-12-20T11:06:49;7.97;;;3.40;;
50066;SDS011;35952;52.524;13.340;2023-12-20T11:09:21;7.37;;;3.90;;
50066;SDS011;35952;52.524;13.340;2023-12-20T11:11:56;7.30;;;3.60;;
50066;SDS011;35952;52.524;13.340;2023-12-20T11:14:49;3.83;;;3.53;;
50066;SDS011;35952;52.524;13.340;2023-12-20T11:17:17;11.40;;;5.00;;
50066;SDS011;35952;52.524;13.340;2023-12-20T11:20:03;14.60;;;3.83;;
50066;SDS011;35952;52.524;13.340;2023-12-20T11:22:30;6.00;;;2.73;;
50066;SDS011;35952;52.524;13.340;2023-12-20T11:27:35;7.17;;;2.97;;
50066;SDS011;35952;52.524;13.340;2023-12-20T11:30:05;7.43;;;3.03;;
50066;SDS011;35952;52.524;13.340;2023-12-20T11:32:35;10.77;;;3.53;;
50066;SDS011;35952;52.524;13.340;2023-12-20T11:35:17;4.40;;;3.67;;
50066;SDS011;35952;52.524;13.340;2023-12-20T11:37:44;10.80;;;4.23;;
50066;SDS011;35952;52.524;13.340;2023-12-20T11:40:13;8.93;;;3.40;;
50066;SDS011;35952;52.524;13.340;2023-12-20T11:42:48;9.77;;;3.60;;
50066;SDS011;35952;52.524;13.340;2023-12-20T11:45:15;8.67;;;4.07;;
50066;SDS011;35952;52.524;13.340;2023-12-20T11:47:47;5.77;;;2.80;;
50066;SDS011;35952;52.524;13.340;2023-12-20T11:50:20;8.50;;;3.30;;
50066;SDS011;35952;52.524;13.340;2023-12-20T11:52:46;11.83;;;4.13;;
50066;SDS011;35952;52.524;13.340;2023-12-20T11:55:13;8.20;;;2.73;;
50066;SDS011;35952;52.524;13.340;2023-12-20T11:57:38;4.60;;;3.07;;
50066;SDS011;35952;52.524;13.340;2023-12-20T12:00:04;7.20;;;3.10;;
50066;SDS011;35952;52.524;13.340;2023-12-20T12:02:31;10.37;;;3.83;;
50066;SDS011;35952;52.524;13.340;2023-12-20T12:04:56;5.00;;;3.37;;
50066;SDS011;35952;52.524;13.340;2023-12-20T12:07:23;6.37;;;3.90;;
50066;SDS011;35952;52.524;13.340;2023-12-20T12:09:52;10.43;;;3.50;;
50066;SDS011;35952;52.524;13.340;2023-12-20T12:12:18;7.67;;;5.07;;
50066;SDS011;35952;52.524;13.340;2023-12-20T12:14:45;10.30;;;3.80;;
50066;SDS011;35952;52.524;13.340;2023-12-20T12:17:11;5.40;;;3.27;;
50066;SDS011;35952;52.524;13.340;2023-12-20T12:19:39;11.83;;;4.03;;
50066;SDS011;35952;52.524;13.340;2023-12-20T12:22:09;7.53;;;3.03;;
50066;SDS011;35952;52.524;13.340;2023-12-20T12:24:43;7.13;;;3.23;;
50066;SDS011;35952;52.524;13.340;2023-12-20T12:27:09;13.90;;;4.10;;
50066;SDS011;35952;52.524;13.340;2023-12-20T12:29:35;5.30;;;3.00;;
50066;SDS011;35952;52.524;13.340;2023-12-20T12:32:04;11.23;;;5.33;;
50066;SDS011;35952;52.524;13.340;2023-12-20T12:34:34;7.70;;;2.90;;
50066;SDS011;35952;52.524;13.340;2023-12-20T12:37:00;11.77;;;3.87;;
50066;SDS011;35952;52.524;13.340;2023-12-20T12:39:26;12.53;;;6.50;;
50066;SDS011;35952;52.524;13.340;2023-12-20T12:41:55;7.57;;;4.23;;
50066;SDS011;35952;52.524;13.340;2023-12-20T12:44:22;10.60;;;5.40;;
50066;SDS011;35952;52.524;13.340;2023-12-20T12:46:50;7.90;;;3.03;;
50066;SDS011;35952;52.524;13.340;2023-12-20T12:49:16;16.03;;;4.03;;
50066;SDS011;35952;52.524;13.340;2023-12-20T12:51:42;9.77;;;4.00;;
50066;SDS011;35952;52.524;13.340;2023-12-20T12:54:08;5.50;;;4.67;;
50066;SDS011;35952;52.524;13.340;2023-12-20T12:56:35;8.93;;;4.53;;
50066;SDS011;35952;52.524;13.340;2023-12-20T12:59:03;9.57;;;4.37;;
50066;SDS011;35952;52.524;13.340;2023-12-20T13:01:30;8.53;;;4.13;;
50066;SDS011;35952;52.524;13.340;2023-12-20T13:03:56;9.80;;;5.70;;
50066;SDS011;35952;52.524;13.340;2023-12-20T13:06:21;22.60;;;5.40;;
50066;SDS011;35952;52.524;13.340;2023-12-20T13:08:47;9.93;;;4.83;;
50066;SDS011;35952;52.524;13.340;2023-12-20T13:11:13;10.77;;;7.73;;
50066;SDS011;35952;52.524;13.340;2023-12-20T13:13:38;7.40;;;4.97;;
50066;SDS011;35952;52.524;13.340;2023-12-20T13:16:04;8.80;;;4.40;;
50066;SDS011;35952;52.524;13.340;2023-12-20T13:18:29;10.63;;;6.17;;
50066;SDS011;35952;52.524;13.340;2023-12-20T13:20:55;5.20;;;3.27;;
50066;SDS011;35952;52.524;13.340;2023-12-20T13:23:20;5.60;;;3.57;;
50066;SDS011;35952;52.524;13.340;2023-12-20T13:25:46;4.70;;;3.23;;
50066;SDS011;35952;52.524;13.340;2023-12-20T13:28:12;7.17;;;3.90;;
50066;SDS011;35952;52.524;13.340;2023-12-20T13:30:38;5.03;;;2.33;;
50066;SDS011;35952;52.524;13.340;2023-12-20T13:33:04;8.20;;;3.20;;
50066;SDS011;35952;52.524;13.340;2023-12-20T13:35:30;5.80;;;3.90;;
50066;SDS011;35952;52.524;13.340;2023-12-20T13:37:56;5.00;;;2.10;;
50066;SDS011;35952;52.524;13.340;2023-12-20T13:40:22;2.67;;;2.47;;
50066;SDS011;35952;52.524;13.340;2023-12-20T13:42:48;2.73;;;2.10;;
50066;SDS011;35952;52.524;13.340;2023-12-20T13:45:14;4.60;;;2.37;;
50066;SDS011;35952;52.524;13.340;2023-12-20T13:47:40;3.10;;;2.10;;
50066;SDS011;35952;52.524;13.340;2023-12-20T13:50:06;3.00;;;1.70;;
50066;SDS011;35952;52.524;13.340;2023-12-20T13:52:31;2.00;;;1.90;;
50066;SDS011;35952;52.524;13.340;2023-12-20T13:54:57;4.10;;;1.53;;
50066;SDS011;35952;52.524;13.340;2023-12-20T13:57:22;2.37;;;2.27;;
50066;SDS011;35952;52.524;13.340;2023-12-20T13:59:48;3.50;;;2.83;;
50066;SDS011;35952;52.524;13.340;2023-12-20T14:02:13;9.53;;;3.73;;
50066;SDS011;35952;52.524;13.340;2023-12-20T14:04:39;7.17;;;2.93;;
50066;SDS011;35952;52.524;13.340;2023-12-20T14:07:06;4.07;;;3.00;;
50066;SDS011;35952;52.524;13.340;2023-12-20T14:09:32;3.43;;;3.10;;
50066;SDS011;35952;52.524;13.340;2023-12-20T14:11:58;9.03;;;2.53;;
50066;SDS011;35952;52.524;13.340;2023-12-20T14:14:24;5.57;;;2.13;;
50066;SDS011;35952;52.524;13.340;2023-12-20T14:16:49;5.43;;;2.53;;
50066;SDS011;35952;52.524;13.340;2023-12-20T14:19:16;2.30;;;2.13;;
50066;SDS011;35952;52.524;13.340;2023-12-20T14:21:41;4.23;;;2.10;;
50066;SDS011;35952;52.524;13.340;2023-12-20T14:24:07;2.30;;;1.77;;
50066;SDS011;35952;52.524;13.340;2023-12-20T14:26:32;2.40;;;1.40;;
50066;SDS011;35952;52.524;13.340;2023-12-20T14:28:58;3.43;;;1.30;;
50066;SDS011;35952;52.524;13.340;2023-12-20T14:31:23;2.60;;;2.33;;
50066;SDS011;35952;52.524;13.340;2023-12-20T14:33:50;6.10;;;1.73;;
50066;SDS011;35952;52.524;13.340;2023-12-20T14:36:16;1.30;;;1.20;;